Time;durP1;ratioP1;P1;durP2;ratioP2;P2;SDS_P1;SDS_P2;PMS_P1;PMS_P2;Temp;Humidity;BMP_temperature;BMP_pressure;BME280_temperature;BME280_humidity;BME280_pressure;Samples;Min_cycle;Max_cycle;Signal;HPM_P1;HPM_P2
2022/06/10 00:00:21;;;;;;;6.05;1.23;;;20.40;79.10;;;;;;5044240;28;20017;-68
2022/06/10 00:02:47;;;;;;;9.60;1.83;;;20.40;79.30;;;;;;5035606;28;20036;-65
2022/06/10 00:05:20;;;;;;;10.60;1.80;;;20.40;79.30;;;;;;5029699;28;20017;-69
2022/06/10 00:07:46;;;;;;;7.95;1.63;;;20.40;79.40;;;;;;5040710;28;20028;-65
2022/06/10 00:10:15;;;;;;;8.73;1.77;;;20.30;79.60;;;;;;5039374;28;20042;-65
2022/06/10 00:12:41;;;;;;;8.60;2.00;;;20.30;79.70;;;;;;5047586;28;20096;-69
2022/06/10 00:15:08;;;;;;;9.13;1.73;;;20.30;79.90;;;;;;5034794;28;20513;-65
2022/06/10 00:17:34;;;;;;;7.20;1.27;;;20.30;80.00;;;;;;5051609;28;20067;-65
2022/06/10 00:20:00;;;;;;;6.57;1.58;;;20.40;80.10;;;;;;5041647;28;20065;-71
2022/06/10 00:22:26;;;;;;;8.43;1.85;;;20.40;80.20;;;;;;5032276;28;20030;-65
2022/06/10 00:24:52;;;;;;;10.38;1.88;;;20.30;80.10;;;;;;5032882;28;20025;-68
2022/06/10 00:27:18;;;;;;;7.95;1.65;;;20.30;80.30;;;;;;5032729;28;20060;-68
2022/06/10 00:29:44;;;;;;;10.93;1.95;;;20.30;80.30;;;;;;5032957;28;20069;-65
2022/06/10 00:32:09;;;;;;;9.10;2.15;;;20.30;80.40;;;;;;5032606;28;20060;-64
2022/06/10 00:34:36;;;;;;;13.85;2.33;;;20.30;80.40;;;;;;5032963;28;20443;-65
2022/06/10 00:37:03;;;;;;;9.45;2.00;;;20.30;80.70;;;;;;5032857;28;20017;-65
2022/06/10 00:39:29;;;;;;;9.70;2.03;;;20.20;80.70;;;;;;5032849;28;20022;-65
2022/06/10 00:41:55;;;;;;;8.93;1.83;;;20.20;80.80;;;;;;5032463;28;20044;-65
2022/06/10 00:44:38;;;;;;;7.57;1.60;;;20.20;80.80;;;;;;5032436;28;20021;-65
2022/06/10 00:47:13;;;;;;;10.20;1.58;;;20.30;80.90;;;;;;5032761;28;20107;-66
2022/06/10 00:49:40;;;;;;;10.00;2.10;;;20.30;80.90;;;;;;5032828;28;20037;-65
2022/06/10 00:52:22;;;;;;;8.95;1.92;;;20.20;81.00;;;;;;5032195;28;20021;-65
2022/06/10 00:54:49;;;;;;;9.87;2.00;;;20.20;81.10;;;;;;5032638;28;20040;-65
2022/06/10 00:57:20;;;;;;;10.90;2.20;;;20.20;81.30;;;;;;5032631;28;20263;-69
2022/06/10 00:59:53;;;;;;;11.10;2.08;;;20.20;81.30;;;;;;5032410;28;20037;-65
2022/06/10 01:02:23;;;;;;;10.52;1.98;;;20.20;81.40;;;;;;5032541;28;20021;-65
2022/06/10 01:04:48;;;;;;;9.45;1.75;;;20.10;81.60;;;;;;5033907;28;20026;-66
2022/06/10 01:07:24;;;;;;;8.57;1.95;;;20.10;81.80;;;;;;5035735;28;20032;-71
2022/06/10 01:09:51;;;;;;;9.40;2.13;;;20.10;81.90;;;;;;5036041;28;20053;-66
2022/06/10 01:12:35;;;;;;;10.35;1.92;;;20.10;81.80;;;;;;5036100;28;20053;-67
2022/06/10 01:15:23;;;;;;;7.80;2.05;;;20.10;81.90;;;;;;5036325;28;20069;-67
2022/06/10 01:18:08;;;;;;;9.90;1.95;;;20.10;82.00;;;;;;5036162;28;20447;-72
2022/06/10 01:20:45;;;;;;;10.10;2.33;;;20.10;82.70;;;;;;5036502;28;20367;-65
2022/06/10 01:23:29;;;;;;;9.82;1.92;;;20.00;82.30;;;;;;5036187;28;20062;-71
2022/06/10 01:26:07;;;;;;;14.40;1.92;;;20.10;82.40;;;;;;5017992;28;20095;-72
2022/06/10 01:28:39;;;;;;;11.50;2.13;;;20.10;82.40;;;;;;5035751;28;20028;-72
2022/06/10 01:31:23;;;;;;;9.32;2.03;;;20.10;82.60;;;;;;5036133;28;20033;-71
2022/06/10 01:34:07;;;;;;;10.85;2.08;;;20.00;82.50;;;;;;5035454;28;20025;-72
2022/06/10 01:37:10;;;;;;;8.45;1.38;;;20.10;82.80;;;;;;5035752;28;20029;-72
2022/06/10 01:40:04;;;;;;;9.98;1.70;;;20.00;83.10;;;;;;5033033;28;20533;-72
2022/06/10 01:42:45;;;;;;;10.63;2.03;;;20.00;83.20;;;;;;5035330;28;20029;-72
2022/06/10 01:45:29;;;;;;;8.73;2.00;;;20.00;83.30;;;;;;5035701;28;20108;-71
2022/06/10 01:48:04;;;;;;;8.48;1.80;;;20.00;83.50;;;;;;5035719;28;20280;-72
2022/06/10 01:50:41;;;;;;;7.70;1.50;;;20.00;83.80;;;;;;5035587;28;20046;-71
2022/06/10 01:53:37;;;;;;;10.55;2.00;;;20.00;83.70;;;;;;5034765;28;21009;-72
2022/06/10 01:56:26;;;;;;;12.75;2.08;;;20.00;83.70;;;;;;5017958;28;20112;-72
2022/06/10 01:58:59;;;;;;;9.82;1.88;;;20.00;83.60;;;;;;5035350;28;20112;-67
2022/06/10 02:01:37;;;;;;;7.60;1.67;;;20.00;83.70;;;;;;5035459;28;20013;-65
2022/06/10 02:04:15;;;;;;;8.88;1.85;;;20.00;84.10;;;;;;5034640;28;20021;-66
2022/06/10 02:06:54;;;;;;;7.43;1.52;;;19.90;84.10;;;;;;5035103;28;20064;-65
2022/06/10 02:09:28;;;;;;;10.93;1.60;;;19.90;84.20;;;;;;5034783;28;20037;-65
2022/06/10 02:12:04;;;;;;;10.27;1.83;;;20.00;84.30;;;;;;5035364;28;20028;-66
2022/06/10 02:14:38;;;;;;;11.15;2.78;;;20.00;84.20;;;;;;5035154;28;20037;-67
2022/06/10 02:17:06;;;;;;;12.20;1.90;;;20.00;84.30;;;;;;5034770;28;20025;-67
2022/06/10 02:19:37;;;;;;;9.10;1.50;;;20.00;84.40;;;;;;5035100;28;20021;-66
2022/06/10 02:22:35;;;;;;;10.23;2.40;;;20.00;84.40;;;;;;5034873;28;20505;-65
2022/06/10 02:25:14;;;;;;;7.30;1.60;;;19.90;84.70;;;;;;5025699;28;20029;-65
2022/06/10 02:27:44;;;;;;;7.88;1.63;;;19.80;84.90;;;;;;5034542;28;20076;-65
2022/06/10 02:30:19;;;;;;;9.80;1.58;;;19.90;85.20;;;;;;5034865;28;20040;-65
2022/06/10 02:32:45;;;;;;;9.05;2.03;;;19.90;85.20;;;;;;5034763;28;20530;-65
2022/06/10 02:35:13;;;;;;;9.98;1.88;;;19.90;85.40;;;;;;5034967;28;20072;-65
2022/06/10 02:38:03;;;;;;;7.38;1.63;;;19.90;85.70;;;;;;5034461;28;20017;-65
2022/06/10 02:40:33;;;;;;;8.63;1.48;;;19.90;85.50;;;;;;5034531;28;20390;-65
2022/06/10 02:43:16;;;;;;;6.10;1.30;;;19.90;85.60;;;;;;5034778;28;20038;-65
2022/06/10 02:46:01;;;;;;;8.52;1.60;;;19.90;85.40;;;;;;5034419;28;20033;-65
2022/06/10 02:48:32;;;;;;;8.48;1.65;;;19.90;85.50;;;;;;5034006;28;20416;-64
2022/06/10 02:50:58;;;;;;;6.47;1.35;;;19.90;85.50;;;;;;5034271;28;20371;-65
2022/06/10 02:53:24;;;;;;;6.53;1.42;;;19.80;85.60;;;;;;5034443;28;20477;-66
2022/06/10 02:55:50;;;;;;;8.57;1.80;;;19.80;85.70;;;;;;5034523;28;20044;-65
2022/06/10 03:01:38;;;;;;;9.63;1.85;;;19.80;85.80;;;;;;5034497;28;20067;-65
2022/06/10 03:04:28;;;;;;;7.80;1.42;;;19.80;85.80;;;;;;5034205;28;20025;-65
2022/06/10 03:07:02;;;;;;;5.05;1.70;;;19.80;85.90;;;;;;5016210;28;20028;-65
2022/06/10 03:09:46;;;;;;;8.40;1.65;;;19.80;85.90;;;;;;5033889;28;20034;-65
2022/06/10 03:12:40;;;;;;;7.78;1.98;;;19.80;85.90;;;;;;5033780;28;20458;-65
2022/06/10 03:15:22;;;;;;;8.15;1.33;;;19.80;86.00;;;;;;5033951;28;20033;-65
2022/06/10 03:18:09;;;;;;;8.02;1.52;;;19.80;85.80;;;;;;5034098;28;20072;-66
2022/06/10 03:20:42;;;;;;;8.23;1.70;;;19.80;85.70;;;;;;5033470;28;20027;-65
2022/06/10 03:23:22;;;;;;;8.75;1.55;;;19.80;85.70;;;;;;5025961;28;20044;-67
2022/06/10 03:25:55;;;;;;;9.13;2.03;;;19.80;86.10;;;;;;5053201;28;20013;-65
2022/06/10 03:28:45;;;;;;;8.32;2.25;;;19.70;86.30;;;;;;5050474;28;20049;-68
2022/06/10 03:31:28;;;;;;;8.70;1.48;;;19.70;85.60;;;;;;5052412;28;20496;-68
2022/06/10 03:34:06;;;;;;;7.70;1.50;;;19.70;84.90;;;;;;5053566;28;20049;-68
2022/06/10 03:36:33;;;;;;;8.93;1.83;;;19.70;84.80;;;;;;5053565;28;20029;-70
2022/06/10 03:39:01;;;;;;;10.23;1.75;;;19.70;85.00;;;;;;5053655;28;20021;-69
2022/06/10 03:41:31;;;;;;;8.32;1.60;;;19.70;85.30;;;;;;5035399;28;20501;-69
2022/06/10 03:44:01;;;;;;;6.65;1.45;;;19.70;85.40;;;;;;5053553;28;20434;-69
2022/06/10 03:46:30;;;;;;;10.73;1.98;;;19.60;85.00;;;;;;5035761;28;20453;-70
2022/06/10 03:48:58;;;;;;;8.20;1.17;;;19.70;85.50;;;;;;5052843;28;20025;-70
2022/06/10 03:51:23;;;;;;;7.90;1.50;;;19.60;85.50;;;;;;5052913;28;20033;-70
2022/06/10 03:53:49;;;;;;;5.60;1.55;;;19.60;85.40;;;;;;5053393;28;20016;-70
2022/06/10 03:56:21;;;;;;;5.95;1.65;;;19.60;85.60;;;;;;5053384;28;20025;-70
2022/06/10 03:58:46;;;;;;;8.48;1.98;;;19.60;85.50;;;;;;5035202;28;20013;-70
2022/06/10 04:01:12;;;;;;;7.85;1.80;;;19.60;85.60;;;;;;5052763;28;20021;-71
2022/06/10 04:03:37;;;;;;;5.80;1.30;;;19.60;85.30;;;;;;5052992;28;20075;-70
2022/06/10 04:06:03;;;;;;;12.13;1.77;;;19.60;85.70;;;;;;5053036;28;20021;-70
2022/06/10 04:08:30;;;;;;;5.88;1.40;;;19.60;85.80;;;;;;5053089;28;20492;-70
2022/06/10 04:10:55;;;;;;;6.50;1.15;;;19.60;86.00;;;;;;5052290;28;20041;-70
2022/06/10 04:13:21;;;;;;;6.80;1.70;;;19.60;86.20;;;;;;5053287;28;20032;-71
2022/06/10 04:15:47;;;;;;;6.32;1.80;;;19.60;86.20;;;;;;5052586;28;20040;-71
2022/06/10 04:18:13;;;;;;;6.18;1.73;;;19.60;86.20;;;;;;5052679;28;20025;-70
2022/06/10 04:20:40;;;;;;;5.97;1.30;;;19.60;86.20;;;;;;5052683;28;20023;-70
2022/06/10 04:23:06;;;;;;;10.15;1.77;;;19.60;86.10;;;;;;5053058;28;20083;-71
2022/06/10 04:25:33;;;;;;;6.72;1.45;;;19.60;86.10;;;;;;5052643;28;20025;-68
2022/06/10 04:27:59;;;;;;;5.63;1.52;;;19.50;86.00;;;;;;5052965;28;20112;-70
2022/06/10 04:30:37;;;;;;;8.38;1.92;;;19.50;86.20;;;;;;5052718;28;20549;-70
2022/06/10 04:33:04;;;;;;;11.85;1.75;;;19.60;86.40;;;;;;5052592;28;20075;-71
2022/06/10 04:35:32;;;;;;;5.53;1.60;;;19.50;86.40;;;;;;5034265;28;20032;-71
2022/06/10 04:37:58;;;;;;;7.28;1.60;;;19.50;86.50;;;;;;5052863;28;20467;-70
2022/06/10 04:40:28;;;;;;;8.82;1.35;;;19.50;86.60;;;;;;5055023;28;20032;-71
2022/06/10 04:42:54;;;;;;;5.80;1.70;;;19.50;86.70;;;;;;5057058;28;20052;-70
2022/06/10 04:45:23;;;;;;;7.18;1.33;;;19.60;86.70;;;;;;5056458;28;20086;-71
2022/06/10 04:47:48;;;;;;;5.82;1.65;;;19.60;86.70;;;;;;5056364;28;20075;-71
2022/06/10 04:50:17;;;;;;;6.68;1.75;;;19.60;86.50;;;;;;5056773;28;20441;-71
2022/06/10 04:52:42;;;;;;;6.07;2.05;;;19.50;86.70;;;;;;5056678;28;20025;-70
2022/06/10 04:55:08;;;;;;;7.57;2.50;;;19.50;86.60;;;;;;5056471;28;20020;-71
2022/06/10 04:57:35;;;;;;;10.82;2.90;;;19.50;86.50;;;;;;5056328;28;20034;-70
2022/06/10 05:00:01;;;;;;;7.22;2.75;;;19.50;86.70;;;;;;5056647;28;20032;-71
2022/06/10 05:02:26;;;;;;;9.70;3.63;;;19.50;86.60;;;;;;5052369;28;20167;-69
2022/06/10 05:04:52;;;;;;;11.45;3.10;;;19.50;86.80;;;;;;5056139;28;20146;-70
2022/06/10 05:07:17;;;;;;;10.90;2.67;;;19.50;86.90;;;;;;5054738;28;20041;-70
2022/06/10 05:09:43;;;;;;;8.77;3.45;;;19.60;87.00;;;;;;5036672;28;20032;-71
2022/06/10 05:12:09;;;;;;;7.78;2.95;;;19.50;86.80;;;;;;5055946;28;20021;-70
2022/06/10 05:14:34;;;;;;;9.48;4.15;;;19.50;86.70;;;;;;5053478;28;20537;-69
2022/06/10 05:17:02;;;;;;;9.15;3.80;;;19.50;86.70;;;;;;5054491;28;20037;-70
2022/06/10 05:19:29;;;;;;;9.75;4.35;;;19.50;87.30;;;;;;5055019;28;20033;-71
2022/06/10 05:21:55;;;;;;;9.20;4.32;;;19.50;86.70;;;;;;5053583;28;20033;-70
2022/06/10 05:24:21;;;;;;;9.05;4.10;;;19.50;86.80;;;;;;5054530;28;20309;-70
2022/06/10 05:26:46;;;;;;;5.20;2.20;;;19.50;86.60;;;;;;5043900;28;20026;-70
2022/06/10 05:29:12;;;;;;;7.43;3.20;;;19.50;86.40;;;;;;5045647;28;20489;-71
2022/06/10 05:31:38;;;;;;;9.52;4.72;;;19.50;86.40;;;;;;5040427;28;20474;-70
2022/06/10 05:36:47;;;;;;;7.32;2.70;;;19.60;86.70;;;;;;5054501;28;20091;-70
2022/06/10 05:39:13;;;;;;;7.80;3.88;;;19.60;86.80;;;;;;5053015;28;20033;-70
2022/06/10 05:44:25;;;;;;;9.80;4.20;;;19.60;86.80;;;;;;5055743;28;20090;-70
2022/06/10 05:46:55;;;;;;;7.03;3.92;;;19.60;87.10;;;;;;5054584;28;20037;-70
2022/06/10 05:49:20;;;;;;;11.55;5.35;;;19.70;87.20;;;;;;5047442;28;20037;-71
2022/06/10 05:51:46;;;;;;;6.72;2.92;;;19.70;87.00;;;;;;5050631;28;20453;-70
2022/06/10 05:54:13;;;;;;;9.00;2.75;;;19.70;86.70;;;;;;5041892;28;20036;-70
2022/06/10 05:56:40;;;;;;;9.93;4.88;;;19.60;86.90;;;;;;5054588;28;20515;-70
2022/06/10 05:59:06;;;;;;;5.97;2.65;;;19.70;87.10;;;;;;5055008;28;20017;-70
2022/06/10 06:01:32;;;;;;;5.78;3.60;;;19.70;86.90;;;;;;5035818;28;20439;-69
2022/06/10 06:03:57;;;;;;;6.50;2.90;;;19.70;87.00;;;;;;5053155;28;20024;-69
2022/06/10 06:06:23;;;;;;;6.78;2.58;;;19.70;86.90;;;;;;5054720;28;20036;-71
2022/06/10 06:08:49;;;;;;;7.72;4.03;;;19.70;86.70;;;;;;5053861;28;20381;-71
2022/06/10 06:11:16;;;;;;;8.13;3.20;;;19.80;87.00;;;;;;5053798;28;20148;-71
2022/06/10 06:13:42;;;;;;;10.48;3.72;;;19.80;86.90;;;;;;5050948;28;20494;-71
2022/06/10 06:16:12;;;;;;;13.30;4.75;;;19.80;87.10;;;;;;5049757;28;20072;-70
2022/06/10 06:18:37;;;;;;;11.55;4.30;;;19.80;86.90;;;;;;5044934;28;20033;-70
2022/06/10 06:21:04;;;;;;;9.68;4.57;;;19.80;86.80;;;;;;5054197;28;20488;-69
2022/06/10 06:23:29;;;;;;;10.13;4.20;;;19.80;87.00;;;;;;5036685;28;20020;-71
2022/06/10 06:25:55;;;;;;;10.75;3.53;;;19.80;87.70;;;;;;5032254;28;20922;-68
2022/06/10 06:28:20;;;;;;;6.20;4.10;;;19.80;87.00;;;;;;5053813;28;20439;-69
2022/06/10 06:30:46;;;;;;;7.43;3.47;;;19.80;86.80;;;;;;5053876;28;20043;-67
2022/06/10 06:33:12;;;;;;;10.07;4.35;;;19.80;86.90;;;;;;5051313;28;20027;-68
2022/06/10 06:35:39;;;;;;;8.40;4.22;;;19.90;87.10;;;;;;5054599;28;20377;-67
2022/06/10 06:38:05;;;;;;;10.80;4.60;;;19.90;87.10;;;;;;5045571;28;20019;-68
2022/06/10 06:40:31;;;;;;;11.82;4.72;;;19.90;87.00;;;;;;5052371;28;20033;-68
2022/06/10 06:42:57;;;;;;;9.35;3.75;;;19.90;87.00;;;;;;5053906;28;20432;-67
2022/06/10 06:45:23;;;;;;;10.73;4.60;;;19.90;87.00;;;;;;5054151;28;20544;-68
2022/06/10 06:47:51;;;;;;;10.20;3.85;;;19.90;87.20;;;;;;5053352;28;20025;-70
2022/06/10 06:50:23;;;;;;;11.75;4.82;;;19.90;87.20;;;;;;5053617;28;20121;-69
2022/06/10 06:52:49;;;;;;;15.23;4.53;;;19.90;87.30;;;;;;5032437;28;20032;-69
2022/06/10 06:55:15;;;;;;;10.55;4.13;;;19.90;87.20;;;;;;5048522;28;20098;-69
2022/06/10 06:57:41;;;;;;;11.73;3.75;;;19.90;87.40;;;;;;5052843;28;20474;-69
2022/06/10 07:00:08;;;;;;;23.17;4.35;;;19.90;87.40;;;;;;5044231;28;20037;-69
2022/06/10 07:02:35;;;;;;;8.68;3.60;;;19.90;87.40;;;;;;5039632;28;20030;-69
2022/06/10 07:05:02;;;;;;;8.57;4.18;;;19.90;87.50;;;;;;5049216;28;20645;-69
2022/06/10 07:07:28;;;;;;;8.95;3.88;;;19.90;87.60;;;;;;5050551;28;20036;-69
2022/06/10 07:09:54;;;;;;;10.68;4.35;;;19.90;87.40;;;;;;5050717;28;20029;-69
2022/06/10 07:12:20;;;;;;;10.30;3.97;;;19.90;87.50;;;;;;5049750;28;20090;-68
2022/06/10 07:14:45;;;;;;;9.80;4.47;;;20.00;87.50;;;;;;5035040;28;20116;-69
2022/06/10 07:17:11;;;;;;;8.90;3.00;;;19.90;87.40;;;;;;5053789;28;20104;-69
2022/06/10 07:19:38;;;;;;;10.85;2.88;;;19.90;87.40;;;;;;5052285;28;20025;-69
2022/06/10 07:22:04;;;;;;;6.65;2.95;;;19.90;87.30;;;;;;5046920;28;20039;-69
2022/06/10 07:24:30;;;;;;;8.18;3.08;;;20.00;87.40;;;;;;5052605;28;20094;-71
2022/06/10 07:26:55;;;;;;;6.53;3.22;;;20.00;87.30;;;;;;5051960;28;20432;-70
2022/06/10 07:29:21;;;;;;;8.45;2.90;;;19.90;87.20;;;;;;5051829;28;20444;-70
2022/06/10 07:31:47;;;;;;;7.30;2.92;;;19.90;87.30;;;;;;5048155;28;20087;-70
2022/06/10 07:34:12;;;;;;;10.38;3.17;;;19.90;87.30;;;;;;5047558;28;20024;-71
2022/06/10 07:36:39;;;;;;;8.90;2.55;;;20.00;88.10;;;;;;5035572;28;20036;-71
2022/06/10 07:39:05;;;;;;;9.27;2.33;;;20.00;87.50;;;;;;5020943;28;20513;-71
2022/06/10 07:44:20;;;;;;;7.22;2.83;;;20.10;87.60;;;;;;5046914;28;20608;-71
2022/06/10 07:46:47;;;;;;;10.50;2.72;;;20.10;87.60;;;;;;5045251;28;20462;-70
2022/06/10 07:49:12;;;;;;;5.70;2.15;;;20.20;87.70;;;;;;5032023;28;20013;-69
2022/06/10 07:51:38;;;;;;;12.55;2.55;;;20.20;87.60;;;;;;5047424;28;20032;-69
2022/06/10 07:54:04;;;;;;;8.18;2.30;;;20.20;87.70;;;;;;5046572;28;20066;-69
2022/06/10 07:56:30;;;;;;;8.60;2.50;;;20.20;87.50;;;;;;5031478;28;20112;-69
2022/06/10 07:58:58;;;;;;;8.07;2.15;;;20.20;87.60;;;;;;5014818;28;20397;-69
2022/06/10 08:01:25;;;;;;;9.10;2.67;;;20.30;87.60;;;;;;5031541;28;20398;-69
2022/06/10 08:03:50;;;;;;;5.90;1.90;;;20.30;87.60;;;;;;5038335;28;20029;-69
2022/06/10 08:06:18;;;;;;;7.05;2.00;;;20.30;87.60;;;;;;5048293;28;20013;-69
2022/06/10 08:08:43;;;;;;;7.50;2.08;;;20.40;87.70;;;;;;5051419;28;20086;-69
2022/06/10 08:11:09;;;;;;;7.68;2.30;;;20.40;87.60;;;;;;5050089;28;20037;-69
2022/06/10 08:13:34;;;;;;;6.80;2.08;;;20.40;87.50;;;;;;5050128;28;20017;-69
2022/06/10 08:16:00;;;;;;;7.55;2.10;;;20.40;87.50;;;;;;5039662;28;20037;-68
2022/06/10 08:18:26;;;;;;;6.10;2.08;;;20.50;87.50;;;;;;5048306;28;20025;-69
2022/06/10 08:23:37;;;;;;;8.40;2.05;;;20.50;87.60;;;;;;5050663;28;20091;-69
2022/06/10 08:26:06;;;;;;;5.47;1.52;;;20.50;87.60;;;;;;5042968;28;20100;-69
2022/06/10 08:28:32;;;;;;;7.20;1.58;;;20.60;87.60;;;;;;5052165;28;20025;-69
2022/06/10 08:30:58;;;;;;;6.75;1.58;;;20.60;87.80;;;;;;5051336;28;20041;-68
2022/06/10 08:33:24;;;;;;;5.50;1.52;;;20.60;87.80;;;;;;5045963;28;20475;-69
2022/06/10 08:35:49;;;;;;;9.43;2.13;;;20.70;88.50;;;;;;5045531;28;20025;-69
2022/06/10 08:38:16;;;;;;;8.52;1.70;;;20.70;87.90;;;;;;5049848;28;20029;-69
2022/06/10 08:41:13;;;;;;;6.10;1.70;;;20.70;88.10;;;;;;5046141;28;20056;-68
2022/06/10 08:43:39;;;;;;;8.02;1.85;;;20.80;88.00;;;;;;5027778;28;20036;-69
2022/06/10 08:46:23;;;;;;;7.85;1.50;;;20.80;88.30;;;;;;5029846;28;20025;-69
2022/06/10 08:49:15;;;;;;;5.25;1.30;;;20.80;88.20;;;;;;5036763;28;20592;-68
2022/06/10 08:52:07;;;;;;;7.97;1.50;;;20.90;88.50;;;;;;5042563;28;20057;-69
2022/06/10 08:54:50;;;;;;;4.82;1.55;;;20.90;88.50;;;;;;5047195;28;20100;-69
2022/06/10 08:57:46;;;;;;;9.27;1.77;;;21.00;88.60;;;;;;5035815;28;20022;-68
2022/06/10 09:00:20;;;;;;;4.35;1.27;;;21.00;88.60;;;;;;5046574;28;20021;-69
2022/06/10 09:02:52;;;;;;;8.35;1.52;;;21.00;88.70;;;;;;5038096;28;20363;-67
2022/06/10 09:05:21;;;;;;;;;;;21.00;88.90;;;;;;5048624;28;20607;-68
2022/06/10 09:07:50;;;;;;;9.60;1.40;;;21.00;88.80;;;;;;5038961;28;19919;-69
2022/06/10 09:10:30;;;;;;;4.57;1.73;;;21.10;89.10;;;;;;5045385;28;20029;-68
2022/06/10 09:13:10;;;;;;;10.27;1.85;;;21.10;89.10;;;;;;5045290;28;20454;-68
2022/06/10 09:15:48;;;;;;;3.78;1.27;;;21.20;89.00;;;;;;5039981;28;20492;-69
2022/06/10 09:18:31;;;;;;;6.88;1.55;;;21.20;88.90;;;;;;5024971;28;20108;-68
2022/06/10 09:21:06;;;;;;;6.97;1.67;;;21.20;89.20;;;;;;5051881;28;20021;-68
2022/06/10 09:23:39;;;;;;;4.63;1.42;;;21.20;89.00;;;;;;5049179;28;20082;-69
2022/06/10 09:26:10;;;;;;;6.65;1.60;;;21.20;89.20;;;;;;5046566;28;20017;-76
2022/06/10 09:28:37;;;;;;;6.38;1.30;;;21.30;89.00;;;;;;5041332;28;20026;-75
2022/06/10 09:31:26;;;;;;;8.07;1.17;;;21.30;89.10;;;;;;5028734;28;20033;-75
2022/06/10 09:34:00;;;;;;;5.35;1.00;;;21.40;88.70;;;;;;5040669;28;20026;-75
2022/06/10 09:36:41;;;;;;;8.93;1.83;;;21.30;88.90;;;;;;5020341;28;20029;-75
2022/06/10 09:42:20;;;;;;;7.93;1.40;;;21.40;88.90;;;;;;5053383;28;20044;-76
2022/06/10 09:45:10;;;;;;;6.50;1.40;;;21.40;88.90;;;;;;5050597;28;20017;-75
2022/06/10 09:47:55;;;;;;;6.35;1.40;;;21.50;89.10;;;;;;5053761;28;20044;-76
2022/06/10 09:50:48;;;;;;;5.32;1.40;;;21.50;89.00;;;;;;5027877;28;20048;-78
2022/06/10 09:53:31;;;;;;;5.60;1.00;;;21.50;88.70;;;;;;5053573;28;20078;-72
2022/06/10 09:56:07;;;;;;;7.43;1.52;;;21.50;88.80;;;;;;5053289;28;20409;-76
2022/06/10 09:58:33;;;;;;;8.10;1.40;;;21.60;88.90;;;;;;5049912;28;20036;-74
2022/06/10 10:01:20;;;;;;;5.90;1.70;;;21.60;88.90;;;;;;5032471;28;20051;-74
2022/06/10 10:03:58;;;;;;;6.38;1.33;;;21.60;88.80;;;;;;5051197;28;20068;-72
2022/06/10 10:06:34;;;;;;;10.60;1.73;;;21.60;89.60;;;;;;5025559;28;20440;-72
2022/06/10 10:09:21;;;;;;;6.25;1.50;;;21.60;88.80;;;;;;5051730;28;20037;-72
2022/06/10 10:11:58;;;;;;;6.82;1.42;;;21.60;89.10;;;;;;5045438;28;20076;-72
2022/06/10 10:14:36;;;;;;;6.03;1.25;;;21.60;89.40;;;;;;5050934;28;20477;-72
2022/06/10 10:17:45;;;;;;;8.10;1.30;;;21.60;89.30;;;;;;5053247;28;20033;-72
2022/06/10 10:20:30;;;;;;;5.13;1.52;;;21.60;89.40;;;;;;5049580;28;20032;-72
2022/06/10 10:23:02;;;;;;;6.00;1.10;;;21.70;89.50;;;;;;5046828;28;20025;-72
2022/06/10 10:25:28;;;;;;;5.25;1.80;;;21.70;89.40;;;;;;5047434;28;20041;-72
2022/06/10 10:27:55;;;;;;;5.38;1.17;;;21.70;89.50;;;;;;5048196;28;20025;-70
2022/06/10 10:30:50;;;;;;;9.23;1.50;;;21.70;89.40;;;;;;5050849;28;20037;-71
2022/06/10 10:33:16;;;;;;;9.15;1.98;;;21.70;89.20;;;;;;5036384;28;20117;-71
2022/06/10 10:35:48;;;;;;;6.93;1.92;;;21.70;89.00;;;;;;5048804;28;20104;-71
2022/06/10 10:38:34;;;;;;;5.10;1.30;;;21.80;89.00;;;;;;5044830;28;20363;-71
2022/06/10 10:41:18;;;;;;;4.80;1.17;;;21.80;88.90;;;;;;5047443;28;20021;-71
2022/06/10 10:43:46;;;;;;;7.55;1.42;;;21.80;89.00;;;;;;5048652;28;20029;-70
2022/06/10 10:46:56;;;;;;;6.53;1.20;;;21.80;88.90;;;;;;5032429;28;20492;-72
2022/06/10 10:49:30;;;;;;;7.28;1.55;;;21.90;88.80;;;;;;5043433;28;20475;-71
2022/06/10 10:51:56;;;;;;;9.38;1.40;;;21.90;88.50;;;;;;5041412;28;20029;-71
2022/06/10 10:54:30;;;;;;;8.23;1.40;;;21.90;88.30;;;;;;5033856;28;20428;-71
2022/06/10 10:56:57;;;;;;;9.93;1.48;;;21.90;88.40;;;;;;5050464;28;20033;-71
2022/06/10 10:59:35;;;;;;;7.38;1.50;;;21.90;88.50;;;;;;5048274;28;20390;-72
2022/06/10 11:02:23;;;;;;;4.72;1.40;;;21.90;88.40;;;;;;5032873;28;20025;-72
2022/06/10 11:04:49;;;;;;;5.57;1.33;;;22.00;88.30;;;;;;5050012;28;20483;-71
2022/06/10 11:07:18;;;;;;;6.28;1.40;;;22.00;88.20;;;;;;5053922;28;20036;-71
2022/06/10 11:09:46;;;;;;;6.07;1.20;;;22.00;88.00;;;;;;5034837;28;20033;-72
2022/06/10 11:12:21;;;;;;;6.32;1.45;;;22.00;87.80;;;;;;5052197;28;20047;-71
2022/06/10 11:14:56;;;;;;;7.28;1.73;;;22.00;87.70;;;;;;5049412;28;20028;-71
2022/06/10 11:17:23;;;;;;;6.03;1.73;;;22.00;87.60;;;;;;5033514;28;20063;-71
2022/06/10 11:19:54;;;;;;;4.18;1.17;;;22.00;87.50;;;;;;5052354;28;20013;-71
2022/06/10 11:22:20;;;;;;;5.03;1.35;;;22.00;87.30;;;;;;5052456;28;20093;-71
2022/06/10 11:24:52;;;;;;;6.93;1.08;;;22.00;87.30;;;;;;5050968;28;20033;-71
2022/06/10 11:27:29;;;;;;;6.75;1.50;;;22.10;87.20;;;;;;5050366;28;20029;-72
2022/06/10 11:29:57;;;;;;;8.07;1.33;;;22.10;87.00;;;;;;5051855;28;20489;-71
2022/06/10 11:32:26;;;;;;;6.05;1.23;;;22.10;87.00;;;;;;5052641;28;20081;-70
2022/06/10 11:35:02;;;;;;;4.22;0.95;;;22.10;87.20;;;;;;5052283;28;20025;-71
2022/06/10 11:37:40;;;;;;;4.68;1.15;;;22.20;86.90;;;;;;5050008;28;20086;-71
2022/06/10 11:40:37;;;;;;;4.72;1.23;;;22.20;86.90;;;;;;5050701;28;20032;-70
2022/06/10 11:43:33;;;;;;;15.00;1.70;;;22.20;86.90;;;;;;5044384;28;20063;-68
2022/06/10 11:46:05;;;;;;;8.25;1.73;;;22.50;86.50;;;;;;5051335;28;20084;-69
2022/06/10 11:48:40;;;;;;;10.05;1.63;;;22.40;86.70;;;;;;5050738;28;20025;-70
2022/06/10 11:51:15;;;;;;;14.02;1.90;;;22.50;87.00;;;;;;5052793;28;20075;-69
2022/06/10 11:54:03;;;;;;;8.10;1.60;;;22.40;86.90;;;;;;5051105;28;20207;-70
2022/06/10 12:02:12;;;;;;;7.70;1.27;;;22.40;87.10;;;;;;5048501;28;20044;-70
2022/06/10 12:04:45;;;;;;;9.70;1.40;;;22.40;86.90;;;;;;5051645;28;20541;-70
2022/06/10 12:07:18;;;;;;;7.45;1.75;;;22.40;87.00;;;;;;5052065;28;20041;-70
2022/06/10 12:09:51;;;;;;;9.30;1.65;;;22.40;87.00;;;;;;5052480;28;20473;-70
2022/06/10 12:12:22;;;;;;;8.43;1.65;;;22.40;87.00;;;;;;5052117;28;20033;-70
2022/06/10 12:14:54;;;;;;;8.93;1.55;;;22.40;86.80;;;;;;5043106;28;20454;-70
2022/06/10 12:17:28;;;;;;;5.30;1.45;;;22.40;86.60;;;;;;5046641;28;20470;-70
2022/06/10 12:20:12;;;;;;;8.50;1.42;;;22.50;86.90;;;;;;5051360;28;20021;-70
2022/06/10 12:22:38;;;;;;;11.02;1.70;;;22.50;86.20;;;;;;5050132;28;20110;-70
2022/06/10 12:25:24;;;;;;;6.80;1.55;;;22.50;86.20;;;;;;5030894;28;20061;-70
2022/06/10 12:28:03;;;;;;;6.70;1.23;;;22.50;86.20;;;;;;5047636;28;20175;-70
2022/06/10 12:30:44;;;;;;;5.18;1.30;;;22.50;86.20;;;;;;5052442;28;20084;-70
2022/06/10 12:33:29;;;;;;;7.60;1.55;;;22.50;86.00;;;;;;5052431;28;20139;-70
2022/06/10 12:35:56;;;;;;;3.78;1.13;;;22.50;86.00;;;;;;5046686;28;20539;-70
2022/06/10 12:38:37;;;;;;;8.57;2.10;;;22.60;85.90;;;;;;5052143;28;20044;-69
2022/06/10 12:41:30;;;;;;;4.03;1.10;;;22.70;86.10;;;;;;5052645;28;20078;-69
2022/06/10 12:44:01;;;;;;;4.88;0.90;;;22.90;84.80;;;;;;5048411;28;20017;-69
2022/06/10 12:46:47;;;;;;;3.70;0.90;;;22.90;84.40;;;;;;5046208;28;20029;-69
2022/06/10 12:49:25;;;;;;;4.22;1.00;;;22.90;84.20;;;;;;5046895;28;20096;-69
2022/06/10 12:52:09;;;;;;;3.45;1.17;;;22.90;84.00;;;;;;5032396;28;20042;-69
2022/06/10 12:55:13;;;;;;;6.55;1.73;;;23.00;83.90;;;;;;5032882;28;20029;-69
2022/06/10 12:57:42;;;;;;;7.53;1.65;;;22.90;83.90;;;;;;5021841;28;20393;-69
2022/06/10 13:00:22;;;;;;;4.07;0.90;;;22.90;83.60;;;;;;5050893;28;20034;-69
2022/06/10 13:02:56;;;;;;;6.93;1.80;;;23.00;83.70;;;;;;5051524;28;20033;-70
2022/06/10 13:05:31;;;;;;;3.97;1.33;;;23.00;84.10;;;;;;5054529;28;20036;-71
2022/06/10 13:07:58;;;;;;;3.53;1.17;;;22.80;84.70;;;;;;5055925;28;20359;-71
2022/06/10 13:10:33;;;;;;;4.90;1.30;;;22.70;85.00;;;;;;5027762;28;20028;-71
2022/06/10 13:13:22;;;;;;;6.25;1.77;;;22.70;84.90;;;;;;5055464;28;20029;-71
2022/06/10 13:15:49;;;;;;;6.10;1.33;;;22.70;85.00;;;;;;5053502;28;20120;-71
2022/06/10 13:18:17;;;;;;;7.07;1.70;;;22.70;84.80;;;;;;5035978;28;20038;-71
2022/06/10 13:20:45;;;;;;;5.38;1.33;;;22.70;84.80;;;;;;5034142;28;20024;-71
2022/06/10 13:23:12;;;;;;;6.72;1.58;;;22.70;84.70;;;;;;5053612;28;20047;-71
2022/06/10 13:25:39;;;;;;;3.35;1.00;;;22.70;84.80;;;;;;5038204;28;20029;-71
2022/06/10 13:28:23;;;;;;;4.25;1.35;;;22.70;84.70;;;;;;5055984;28;20530;-71
2022/06/10 13:30:50;;;;;;;3.53;1.30;;;22.70;84.70;;;;;;5052330;28;20469;-71
2022/06/10 13:33:18;;;;;;;5.18;1.15;;;22.70;84.60;;;;;;5042016;28;20092;-71
2022/06/10 13:35:43;;;;;;;9.15;1.42;;;22.70;84.50;;;;;;5035794;28;20026;-71